Архив погоды в Авангарде Зерносовхозе

Метеограмма Авангард Зерносовхоз
Пятница, 22 Июня
Время местн. Темп Ветер Видим Явления Облачность нижн/средн/верх Атм. давл. Влжн Точка росы ВНГО R Сост. почвы Tg s
Напр Скр Прв ур.ст ур.м изм
04:00 +11.5° З,С-З 1 - 20 км - ясно 749 757 +0.3 71% +6.4° более 2.5 км - - - -
01:00 +15.5° З 1 - 50 км - ясно 749 757 +0.4 50% +5.1° более 2.5 км - - - -
Четверг, 21 Июня
Время местн. Темп Ветер Видим Явления Облачность нижн/средн/верх Атм. давл. Влжн Точка росы ВНГО R Сост. почвы Tg s
Напр Скр Прв ур.ст ур.м изм
22:00 +19.4° З,С-З 3 - 50 км - облачно с прояснениями 748 756 +0.9 36% +4° 1 км - - - -
19:00 +22.7° З,С-З 6 - 20 км - облачно с прояснениями 747 755 -0.5 27% +2.8° 1.5 км 0 - - -
16:00 +24.8° З,С-З 8 14 20 км - переменная облачность 747 755 -0.5 22% +1.7° 1 км - - - -
13:00 +23.8° З 7 13 20 км - переменная облачность 748 756 -1.1 29% +4.6° 1 км - - - -
10:00 +21.4° З 6 11 20 км - облачно с прояснениями 749 757 +0.1 42% +8° 1 км - - - -
07:00 +16.9° З,Ю-З 2 - 20 км - ясно 749 757 +0.5 75% +12.4° более 2.5 км 7 Влажная (без луж) - -
04:00 +8.6° В,Ю-В 2 - 20 км - незначительная облачность 748 756 +0.3 93% +7.5° 600 м - - - -
01:00 +12.9° штиль 0 - 50 км - переменная облачность 748 756 +0.7 92% +11.6° 1 км - - - -
Среда, 20 Июня
Время местн. Темп Ветер Видим Явления Облачность нижн/средн/верх Атм. давл. Влжн Точка росы ВНГО R Сост. почвы Tg s
Напр Скр Прв ур.ст ур.м изм
22:00 +16.7° С,С-З 1 11 50 км ливневый дождь облачно с прояснениями 747 755 +1.8 91% +15.3° 1 км - - - -
19:00 +23.4° З 5 20 20 км небо без изменений {ливневые осадки} облачно 746 753 +0.2 57% +14.4° 1 км 0.1 - - -
16:00 +30° З 7 14 20 км - облачно с прояснениями 746 753 -2.3 24% +7.5° 1 км - - - -
13:00 +24.6° С-З 4 11 20 км - облачно 748 755 -1 38% +9.3° 1 км - - - -
10:00 +27.5° З,Ю-З 5 - 20 км - переменная облачность 749 756 -0.5 29% +7.7° более 2.5 км - - - -
07:00 +20° Ю 1 - 20 км - преимущественно облачно 749 757 -0.3 50% +9.2° более 2.5 км 0 Сухая (без трещин) +12° -
04:00 +12.8° В,Ю-В 2 - 20 км - ясно 750 758 -0.3 69% +7.3° более 2.5 км - - - -
01:00 +15.2° С-З 1 - 50 км - ясно 750 758 +0.5 63% +8.1° более 2.5 км - - - -
Вторник, 19 Июня
Время местн. Темп Ветер Видим Явления Облачность нижн/средн/верх Атм. давл. Влжн Точка росы ВНГО R Сост. почвы Tg s
Напр Скр Прв ур.ст ур.м изм
22:00 +18.9° З,С-З 1 - 50 км - переменная облачность 750 758 +0.5 50% +8.3° 1 км - - - -
19:00 +28.3° С,С-З 2 - 20 км - переменная облачность 749 757 -0.4 23% +5.2° 1 км 0 - - -
16:00 +29.3° С-З 3 - 20 км - переменная облачность 750 757 -0.6 20% +4.2° 1 км - - - -
13:00 +28.2° С 4 - 20 км - переменная облачность 750 758 -0.6 22% +4.2° 1.5 км - - - -
10:00 +26.3° С-З 3 - 20 км - незначительная облачность 751 759 -0.2 24% +4.4° 1 км - - - -
07:00 +17.5° Ю,Ю-З 1 - 20 км - ясно 751 759 +0.3 57% +8.9° более 2.5 км 0 Сухая (без трещин) - -
04:00 +8.2° Ю-В 1 - 20 км - ясно 751 759 0 81% +5.2° более 2.5 км - - - -
01:00 +11.5° Ю 1 - 50 км - ясно 751 759 0 76% +7.5° более 2.5 км - - - -